createdAt,value
2018-08-27T00:00:00.712Z,59.7
2018-08-27T00:00:59.916Z,59.6
2018-08-27T00:01:59.355Z,59.6
2018-08-27T00:02:58.180Z,59.6
2018-08-27T00:03:57.414Z,59.9
2018-08-27T00:04:56.746Z,60.1
2018-08-27T00:05:56.124Z,60.1
2018-08-27T00:06:55.462Z,60.7
2018-08-27T00:07:54.690Z,60.5
2018-08-27T00:08:53.525Z,60.2
2018-08-27T00:09:52.850Z,60.5
2018-08-27T00:10:52.365Z,60.7
2018-08-27T00:11:51.703Z,60.6
2018-08-27T00:12:50.631Z,60.5
2018-08-27T00:13:50.215Z,60.8
2018-08-27T00:14:49.044Z,60.4
2018-08-27T00:15:48.369Z,60.6
2018-08-27T00:16:47.718Z,60.6
2018-08-27T00:17:46.945Z,60.7
2018-08-27T00:18:46.067Z,60.7
2018-08-27T00:19:45.404Z,60.7
2018-08-27T00:20:44.627Z,60.8
2018-08-27T00:21:43.961Z,60.7
2018-08-27T00:22:43.290Z,61.1
2018-08-27T00:23:42.299Z,60.9
2018-08-27T00:24:41.533Z,61.2
2018-08-27T00:26:40.044Z,61
2018-08-27T00:27:39.162Z,61
2018-08-27T00:28:38.392Z,61
2018-08-27T00:29:37.830Z,61.1
2018-08-27T00:30:37.163Z,61.3
2018-08-27T00:31:36.096Z,61.4
2018-08-27T00:32:35.213Z,61.5
2018-08-27T00:33:34.438Z,61.6
2018-08-27T00:34:33.885Z,61.6
2018-08-27T00:36:32.105Z,61.7
2018-08-27T00:37:31.723Z,61.6
2018-08-27T00:38:30.839Z,62
2018-08-27T00:39:30.181Z,62.2
2018-08-27T00:40:29.025Z,62.4
2018-08-27T00:40:59.670Z,62.4
2018-08-27T00:41:30.312Z,62.5
2018-08-27T00:42:00.849Z,62.5
2018-08-27T00:43:26.539Z,62.2
2018-08-27T00:44:25.776Z,61.9
2018-08-27T00:45:25.384Z,61.9
2018-08-27T00:46:24.514Z,62.1
2018-08-27T00:47:23.847Z,62
2018-08-27T00:48:23.180Z,62.2
2018-08-27T00:49:22.301Z,62.3
2018-08-27T00:50:21.520Z,62.1
2018-08-27T00:50:51.958Z,62.1
2018-08-27T00:51:22.207Z,62.3
2018-08-27T00:51:52.636Z,62.3
2018-08-27T00:52:23.177Z,62.3
2018-08-27T00:52:53.612Z,62.3
2018-08-27T00:54:18.115Z,62.6
2018-08-27T00:55:17.351Z,62.3
2018-08-27T00:56:16.468Z,62.1
2018-08-27T00:57:15.800Z,62.3
2018-08-27T00:58:15.245Z,62.3
2018-08-27T00:59:14.570Z,62.4
2018-08-27T01:00:13.905Z,62.2
2018-08-27T01:01:12.740Z,62.6
2018-08-27T01:02:11.970Z,62.6
2018-08-27T01:03:11.303Z,62.2
2018-08-27T01:04:10.571Z,61.9
2018-08-27T01:05:09.690Z,61.8
2018-08-27T01:06:09.032Z,61.6
2018-08-27T01:07:08.259Z,61.5
2018-08-27T01:08:07.491Z,61.4
2018-08-27T01:09:06.834Z,61.5
2018-08-27T01:10:05.779Z,61.5
2018-08-27T01:11:04.893Z,61.6
2018-08-27T01:12:04.225Z,61.9
2018-08-27T01:13:03.458Z,61.3
2018-08-27T01:14:02.681Z,61.6
2018-08-27T01:15:01.911Z,61
2018-08-27T01:16:01.049Z,60.2
2018-08-27T01:17:00.284Z,60.1
2018-08-27T01:17:59.625Z,59.9
2018-08-27T01:18:58.836Z,60.6
2018-08-27T01:19:57.979Z,59.6
2018-08-27T01:20:57.202Z,59.8
2018-08-27T01:21:56.641Z,59.6
2018-08-27T01:22:56.077Z,59
2018-08-27T01:23:54.902Z,59.7
2018-08-27T01:24:54.235Z,59.5
2018-08-27T01:25:53.568Z,59.5
2018-08-27T01:26:52.788Z,60
2018-08-27T01:27:52.226Z,59.8
2018-08-27T01:28:50.947Z,59.8
2018-08-27T01:29:50.682Z,59.3
2018-08-27T01:30:49.916Z,58.8
2018-08-27T01:31:20.169Z,58.8
2018-08-27T01:31:50.609Z,59.1
2018-08-27T01:32:21.147Z,59.1
2018-08-27T01:32:51.684Z,59.2
2018-08-27T01:33:22.230Z,59.2
2018-08-27T01:33:52.781Z,59.6
2018-08-27T01:34:23.420Z,59.6
2018-08-27T01:35:45.909Z,59.5
2018-08-27T01:36:44.919Z,59.7
2018-08-27T01:37:44.129Z,59.5
2018-08-27T01:38:43.255Z,59.1
2018-08-27T01:39:42.690Z,59.2
2018-08-27T01:41:40.914Z,59.4
2018-08-27T01:42:40.432Z,59.4
2018-08-27T01:43:39.671Z,59.6
2018-08-27T01:44:09.933Z,59.6
2018-08-27T01:44:40.260Z,59.7
2018-08-27T01:45:38.096Z,59.7
2018-08-27T01:47:36.434Z,59.7
2018-08-27T01:48:36.055Z,60.3
2018-08-27T01:49:34.893Z,60.2
2018-08-27T01:50:34.127Z,60.2
2018-08-27T01:51:33.457Z,60.3
2018-08-27T01:52:32.676Z,60.5
2018-08-27T01:53:31.797Z,60.7
2018-08-27T01:54:31.412Z,60.6
2018-08-27T01:55:30.541Z,60.8
2018-08-27T01:56:29.474Z,61.1
2018-08-27T01:57:28.906Z,61.4
2018-08-27T01:58:28.072Z,61.2
2018-08-27T01:59:27.399Z,61.7
2018-08-27T02:00:26.428Z,61.2
2018-08-27T02:01:25.762Z,62
2018-08-27T02:02:24.980Z,61.8
2018-08-27T02:03:24.100Z,62.3
2018-08-27T02:04:23.430Z,62.1
2018-08-27T02:05:22.795Z,62.1
2018-08-27T02:06:22.029Z,61.8
2018-08-27T02:07:21.009Z,62.1
2018-08-27T02:08:20.121Z,62.6
2018-08-27T02:09:19.348Z,62.2
2018-08-27T02:10:18.859Z,62.4
2018-08-27T02:11:17.975Z,62.6
2018-08-27T02:12:17.422Z,62.2
2018-08-27T02:13:16.146Z,62.4
2018-08-27T02:13:46.797Z,62.4
2018-08-27T02:14:17.340Z,62.4
2018-08-27T02:15:15.059Z,62.5
2018-08-27T02:16:13.883Z,62.1
2018-08-27T02:17:13.314Z,62.4
2018-08-27T02:18:12.759Z,62.4
2018-08-27T02:19:11.970Z,62
2018-08-27T02:20:10.699Z,62.3
2018-08-27T02:21:10.215Z,62.1
2018-08-27T02:22:09.446Z,62.1
2018-08-27T02:23:08.693Z,62.1
2018-08-27T02:24:07.696Z,62.5
2018-08-27T02:25:06.920Z,62.2
2018-08-27T02:26:06.257Z,62
2018-08-27T02:27:05.505Z,62
2018-08-27T02:28:04.447Z,62
2018-08-27T02:28:34.695Z,62
2018-08-27T02:29:05.240Z,61.9
2018-08-27T02:29:35.377Z,61.9
2018-08-27T02:30:06.131Z,61.6
2018-08-27T02:30:36.572Z,61.6
2018-08-27T02:31:07.126Z,61.7
2018-08-27T02:32:01.430Z,61.6
2018-08-27T02:33:00.841Z,61.9
2018-08-27T02:33:59.960Z,61.8
2018-08-27T02:34:59.204Z,62.3
2018-08-27T02:35:58.280Z,61.7
2018-08-27T02:36:57.617Z,61.6
2018-08-27T02:37:57.059Z,61.5
2018-08-27T02:38:56.283Z,61.4
2018-08-27T02:39:55.408Z,61.3
2018-08-27T02:40:54.265Z,61.2
2018-08-27T02:41:53.887Z,61
2018-08-27T02:42:52.728Z,61.7
2018-08-27T02:43:51.957Z,61.2
2018-08-27T02:44:51.303Z,60.9
2018-08-27T02:45:50.743Z,61
2018-08-27T02:46:49.579Z,61.4
2018-08-27T02:47:48.715Z,61.4
2018-08-27T02:48:48.440Z,61.3
2018-08-27T02:49:47.155Z,61.8
2018-08-27T02:50:46.782Z,61.5
2018-08-27T02:51:45.900Z,61.2
2018-08-27T02:52:45.234Z,61.5
2018-08-27T02:53:44.363Z,61.5
2018-08-27T02:54:43.390Z,61.7
2018-08-27T02:55:42.618Z,61.9
2018-08-27T02:56:41.952Z,61.7
2018-08-27T02:57:41.069Z,61.5
2018-08-27T02:58:11.718Z,61.5
2018-08-27T02:58:41.856Z,61.5
2018-08-27T02:59:12.396Z,61.5
2018-08-27T02:59:42.536Z,61.7
2018-08-27T03:00:12.963Z,61.7
2018-08-27T03:00:43.556Z,61.3
2018-08-27T03:01:38.036Z,60.9
2018-08-27T03:02:37.373Z,61.5
2018-08-27T03:03:36.776Z,61.4
2018-08-27T03:04:35.615Z,61.4
2018-08-27T03:05:34.952Z,61.7
2018-08-27T03:06:34.177Z,62.1
2018-08-27T03:07:33.294Z,61.8
2018-08-27T03:08:03.940Z,61.8
2018-08-27T03:08:34.584Z,61.6
2018-08-27T03:09:05.144Z,61.6
2018-08-27T03:09:35.897Z,61.7
2018-08-27T03:10:06.544Z,61.7
2018-08-27T03:10:36.802Z,61.6
2018-08-27T03:11:07.442Z,61.6
2018-08-27T03:11:38.080Z,61.7
2018-08-27T03:12:08.236Z,61.7
2018-08-27T03:13:28.612Z,61.3
2018-08-27T03:14:27.947Z,61
2018-08-27T03:15:27.308Z,60.9
2018-08-27T03:16:26.242Z,61.2
2018-08-27T03:17:25.640Z,61.1
2018-08-27T03:18:24.691Z,61.6
2018-08-27T03:19:24.006Z,61.5
2018-08-27T03:19:54.661Z,61.5
2018-08-27T03:21:22.586Z,61.5
2018-08-27T03:21:52.832Z,61.5
2018-08-27T03:23:20.766Z,61.4
2018-08-27T03:24:20.083Z,61.1
2018-08-27T03:25:19.032Z,61.6
2018-08-27T03:26:18.368Z,61.8
2018-08-27T03:27:17.599Z,61.8
2018-08-27T03:28:16.720Z,61.8
2018-08-27T03:29:15.962Z,61.3
2018-08-27T03:30:15.293Z,61.3
2018-08-27T03:31:14.528Z,61.3
2018-08-27T03:32:13.774Z,61.3
2018-08-27T03:33:12.758Z,61.1
2018-08-27T03:34:12.099Z,60.6
2018-08-27T03:35:11.103Z,60.9
2018-08-27T03:36:10.625Z,61
2018-08-27T03:37:10.083Z,60.8
2018-08-27T03:38:08.970Z,61.4
2018-08-27T03:39:08.089Z,60.9
2018-08-27T03:40:07.201Z,60.9
2018-08-27T03:41:06.939Z,60.6
2018-08-27T03:42:05.953Z,60.6
2018-08-27T03:43:04.785Z,60.5
2018-08-27T03:44:04.017Z,60.4
2018-08-27T03:45:03.658Z,60.3
2018-08-27T03:46:03.009Z,60.4
2018-08-27T03:47:01.735Z,60.5
2018-08-27T03:48:00.964Z,60.8
2018-08-27T03:49:00.227Z,60.1
2018-08-27T03:49:59.466Z,60
2018-08-27T03:50:30.006Z,60
2018-08-27T03:51:00.692Z,60.7
2018-08-27T03:51:31.350Z,60.7
2018-08-27T03:52:57.249Z,60.2
2018-08-27T03:53:56.490Z,59.9
2018-08-27T03:54:55.864Z,60.1
2018-08-27T03:55:54.709Z,60.8
2018-08-27T03:56:53.932Z,60.3
2018-08-27T03:57:53.150Z,59.8
2018-08-27T03:58:52.271Z,60.5
2018-08-27T03:59:51.501Z,59.6
2018-08-27T04:00:50.837Z,59.7
2018-08-27T04:01:21.091Z,59.7
2018-08-27T04:01:51.528Z,60.3
2018-08-27T04:02:21.962Z,60.3
2018-08-27T04:02:52.608Z,60.2
2018-08-27T04:03:48.910Z,59.9
2018-08-27T04:04:48.146Z,59.5
2018-08-27T04:05:46.865Z,59.6
2018-08-27T04:06:46.099Z,59.7
2018-08-27T04:07:45.330Z,59.7
2018-08-27T04:08:44.547Z,59.6
2018-08-27T04:09:43.878Z,59.7
2018-08-27T04:10:43.102Z,59.8
2018-08-27T04:11:42.219Z,59.6
2018-08-27T04:12:41.445Z,59.3
2018-08-27T04:13:40.558Z,59.3
2018-08-27T04:14:40.188Z,59.3
2018-08-27T04:15:39.416Z,59.7
2018-08-27T04:16:38.635Z,59.5
2018-08-27T04:17:37.880Z,59
2018-08-27T04:18:37.106Z,58.8
2018-08-27T04:19:36.337Z,59.2
2018-08-27T04:20:35.062Z,59.2
2018-08-27T04:21:34.789Z,58.8
2018-08-27T04:22:33.631Z,59.3
2018-08-27T04:23:32.988Z,58.9
2018-08-27T04:24:32.322Z,59.1
2018-08-27T04:25:31.651Z,59.3
2018-08-27T04:26:30.592Z,58.5
2018-08-27T04:27:29.712Z,59.1
2018-08-27T04:28:28.964Z,59
2018-08-27T04:29:28.405Z,59
2018-08-27T04:30:27.630Z,59.3
2018-08-27T04:31:26.853Z,58.7
2018-08-27T04:32:26.184Z,59.2
2018-08-27T04:33:25.528Z,59.4
2018-08-27T04:35:23.634Z,59.2
2018-08-27T04:36:23.075Z,59.3
2018-08-27T04:37:22.312Z,58.9
2018-08-27T04:38:21.288Z,58.7
2018-08-27T04:39:20.734Z,58.9
2018-08-27T04:40:19.967Z,59.2
2018-08-27T04:41:19.188Z,58.7
2018-08-27T04:42:18.306Z,59.3
2018-08-27T04:44:16.625Z,59.2
2018-08-27T04:46:15.264Z,59.2
2018-08-27T04:46:45.911Z,59.2
2018-08-27T04:47:16.340Z,59
2018-08-27T04:47:46.884Z,59
2018-08-27T04:49:12.799Z,59.4
2018-08-27T04:50:12.023Z,59.6
2018-08-27T04:51:11.266Z,59.8
2018-08-27T04:54:08.997Z,59.4
2018-08-27T04:55:07.953Z,59.1
2018-08-27T04:57:06.680Z,58.9
2018-08-27T04:58:06.004Z,58.7
2018-08-27T05:05:59.844Z,58.7
2018-08-27T05:06:59.071Z,58.2
2018-08-27T05:08:57.281Z,58
2018-08-27T05:13:53.556Z,57.6
2018-08-27T05:14:52.785Z,57.6
2018-08-27T05:15:51.624Z,58.2
2018-08-27T05:20:48.147Z,57.7
2018-08-27T05:22:46.261Z,57.3
2018-08-27T05:24:44.768Z,57.8
2018-08-27T05:26:43.084Z,57.5
2018-08-27T05:27:13.332Z,57.5
2018-08-27T05:29:40.888Z,58
2018-08-27T05:30:40.392Z,58.8
2018-08-27T05:31:39.238Z,57.5
2018-08-27T05:32:38.675Z,58.2
2018-08-27T05:33:38.002Z,57.9
2018-08-27T05:34:36.835Z,58.3
2018-08-27T05:35:36.280Z,58
2018-08-27T05:36:35.504Z,57.5
2018-08-27T05:37:05.983Z,57.5
2018-08-27T05:37:36.654Z,57.7
2018-08-27T05:38:07.409Z,57.7
2018-08-27T05:38:37.772Z,57.9
2018-08-27T05:39:08.315Z,57.9
2018-08-27T05:39:38.745Z,57.6
2018-08-27T05:40:09.178Z,57.6
2018-08-27T05:42:30.953Z,57.3
2018-08-27T05:44:29.642Z,56.7
2018-08-27T05:45:28.398Z,57.2
2018-08-27T05:46:27.742Z,57.6
2018-08-27T05:47:26.758Z,56.2
2018-08-27T05:48:26.379Z,56.1
2018-08-27T05:50:24.654Z,56.1
2018-08-27T05:51:23.783Z,56.5
2018-08-27T05:52:23.713Z,55.5
2018-08-27T05:53:22.285Z,55.1
2018-08-27T05:55:20.897Z,55.2
2018-08-27T05:56:20.015Z,55.3
2018-08-27T05:57:19.346Z,54.3
2018-08-27T05:58:18.799Z,54.2
2018-08-27T05:59:18.018Z,54.4
2018-08-27T06:00:17.144Z,54.6
2018-08-27T06:01:16.368Z,53.9
2018-08-27T06:02:15.598Z,54.5
2018-08-27T06:03:14.929Z,54
2018-08-27T06:04:14.043Z,54.4
2018-08-27T06:06:12.548Z,53.8
2018-08-27T06:08:11.168Z,53.1
2018-08-27T06:11:09.082Z,53.8
2018-08-27T06:12:08.260Z,54.5
2018-08-27T06:18:03.567Z,52.7
2018-08-27T06:20:01.795Z,52.5
2018-08-27T06:21:01.421Z,52.6
2018-08-27T06:22:59.635Z,53.4
2018-08-27T06:23:58.865Z,53.1
2018-08-27T06:24:29.508Z,53.1
2018-08-27T06:24:59.951Z,53.2
2018-08-27T06:25:57.543Z,53
2018-08-27T06:26:56.990Z,52.1
2018-08-27T06:27:55.725Z,52.8
2018-08-27T06:29:54.250Z,52.9
2018-08-27T06:30:54.084Z,52.4
2018-08-27T06:31:53.309Z,52.1
2018-08-27T06:32:52.315Z,52.2
2018-08-27T06:33:51.536Z,52.9
2018-08-27T06:34:50.775Z,51.9
2018-08-27T06:35:49.894Z,52
2018-08-27T06:36:49.236Z,51.2
2018-08-27T06:39:47.139Z,51.7
2018-08-27T06:40:46.473Z,51.1
2018-08-27T06:41:45.810Z,51.3
2018-08-27T06:42:45.136Z,51.6
2018-08-27T06:43:44.372Z,50.6
2018-08-27T06:44:43.303Z,51.4
2018-08-27T06:45:42.539Z,50.1
2018-08-27T06:46:41.981Z,50.8
2018-08-27T06:47:41.360Z,50.3
2018-08-27T06:48:40.713Z,49.7
2018-08-27T06:49:40.058Z,50
2018-08-27T06:50:38.900Z,49.2
2018-08-27T06:51:38.136Z,49.2
2018-08-27T06:52:37.764Z,49.3
2018-08-27T06:53:36.698Z,49.3
2018-08-27T06:54:36.323Z,49.1
2018-08-27T06:55:35.653Z,48.8
2018-08-27T06:56:34.708Z,49.1
2018-08-27T06:57:34.112Z,49.2
2018-08-27T06:58:33.340Z,48.8
2018-08-27T06:59:32.679Z,48.6
2018-08-27T07:00:31.907Z,48.8
2018-08-27T07:01:31.241Z,48.9
2018-08-27T07:02:30.360Z,48.3
2018-08-27T07:03:29.610Z,47.8
2018-08-27T07:04:00.246Z,47.8
2018-08-27T07:04:30.785Z,47.8
2018-08-27T07:05:01.325Z,47.8
2018-08-27T07:06:27.643Z,47.9
2018-08-27T07:07:26.884Z,47
2018-08-27T07:08:26.262Z,46.9
2018-08-27T07:09:25.093Z,47.1
2018-08-27T07:10:24.738Z,46.8
2018-08-27T07:11:23.752Z,46
2018-08-27T07:12:23.099Z,45.6
2018-08-27T07:13:22.539Z,45.7
2018-08-27T07:13:52.795Z,45.7
2018-08-27T07:15:21.208Z,44.9
2018-08-27T07:15:51.751Z,44.9
2018-08-27T07:16:22.286Z,45.9
2018-08-27T07:16:53.043Z,45.9
2018-08-27T07:18:19.060Z,45.3
2018-08-27T07:20:17.680Z,44.7
2018-08-27T07:21:16.686Z,44.1
2018-08-27T07:22:16.127Z,44.6
2018-08-27T07:23:15.527Z,44.1
2018-08-27T07:24:14.868Z,44.1
2018-08-27T07:25:14.311Z,43.7
2018-08-27T07:26:13.558Z,43.4
2018-08-27T07:27:12.761Z,42.5
2018-08-27T07:28:11.885Z,42.7
2018-08-27T07:29:11.222Z,42.7
2018-08-27T07:30:10.676Z,41.6
2018-08-27T07:31:10.167Z,42.6
2018-08-27T07:32:09.179Z,42.4
2018-08-27T07:33:08.521Z,41
2018-08-27T07:34:07.856Z,41.1
2018-08-27T07:35:07.298Z,41.8
2018-08-27T07:36:06.770Z,41.3
2018-08-27T07:37:05.791Z,40.5
2018-08-27T07:38:05.018Z,40.3
2018-08-27T07:39:04.357Z,41
2018-08-27T07:40:03.873Z,40.2
2018-08-27T07:41:03.312Z,40
2018-08-27T07:42:02.532Z,41.7
2018-08-27T07:43:01.553Z,40
2018-08-27T07:45:00.563Z,39.4
2018-08-27T07:45:59.800Z,40.5
2018-08-27T07:46:59.038Z,39.6
2018-08-27T07:47:29.684Z,39.6
2018-08-27T07:48:00.123Z,40
2018-08-27T07:48:57.954Z,39.9
2018-08-27T07:49:56.886Z,40.2
2018-08-27T07:50:56.620Z,39.9
2018-08-27T07:51:55.736Z,40.2
2018-08-27T07:52:55.204Z,39.6
2018-08-27T07:53:54.673Z,39.8
2018-08-27T07:54:54.004Z,40.5
2018-08-27T07:55:53.125Z,39.5
2018-08-27T07:56:52.244Z,40
2018-08-27T07:57:51.979Z,39.3
2018-08-27T07:58:22.717Z,39.3
2018-08-27T07:58:52.752Z,39.2
2018-08-27T07:59:50.580Z,39.6
2018-08-27T08:00:49.815Z,40.2
2018-08-27T08:01:49.145Z,39.6
2018-08-27T08:02:48.373Z,38.9
2018-08-27T08:03:48.156Z,39.5
2018-08-27T08:04:47.623Z,40.1
2018-08-27T08:05:46.732Z,39.7
2018-08-27T08:06:45.960Z,39.3
2018-08-27T08:07:45.293Z,40.1
2018-08-27T08:08:44.913Z,40.5
2018-08-27T08:09:44.137Z,39.6
2018-08-27T08:10:43.262Z,41
2018-08-27T08:11:42.600Z,40
2018-08-27T08:12:42.049Z,39.4
2018-08-27T08:14:40.661Z,40.1
2018-08-27T08:15:40.382Z,39.6
2018-08-27T08:16:39.219Z,39
2018-08-27T08:17:39.048Z,39.1
2018-08-27T08:18:38.272Z,39.1
2018-08-27T08:19:37.398Z,38.8
2018-08-27T08:20:37.127Z,40.1
2018-08-27T08:21:36.064Z,39.2
2018-08-27T08:22:35.406Z,39.2
2018-08-27T08:23:34.926Z,40.8
2018-08-27T08:24:34.157Z,40.2
2018-08-27T08:25:33.488Z,40.6
2018-08-27T08:26:32.820Z,39.9
2018-08-27T08:27:32.204Z,39.8
2018-08-27T08:28:31.546Z,40.5
2018-08-27T08:30:30.563Z,42
2018-08-27T08:31:29.788Z,41.2
2018-08-27T08:32:29.136Z,41.9
2018-08-27T08:33:28.649Z,42
2018-08-27T08:34:27.885Z,41.7
2018-08-27T08:35:27.005Z,41.6
2018-08-27T08:36:26.733Z,41.5
2018-08-27T08:37:26.060Z,41.4
2018-08-27T08:38:25.182Z,41.4
2018-08-27T08:39:24.508Z,41.3
2018-08-27T08:40:24.175Z,40.6
2018-08-27T08:41:23.575Z,41.2
2018-08-27T08:42:22.898Z,40.6
2018-08-27T08:43:22.120Z,40.1
2018-08-27T08:43:52.662Z,40.1
2018-08-27T08:44:22.904Z,40.1
2018-08-27T08:45:20.720Z,40.5
2018-08-27T08:46:20.237Z,40.9
2018-08-27T08:48:19.073Z,41.5
2018-08-27T08:49:18.519Z,39.7
2018-08-27T08:50:17.630Z,40.1
2018-08-27T08:51:16.858Z,40.4
2018-08-27T08:52:16.193Z,40.3
2018-08-27T08:53:15.916Z,41.8
2018-08-27T08:53:46.137Z,41.8
2018-08-27T08:54:16.793Z,41.5
2018-08-27T08:54:47.332Z,41.5
2018-08-27T08:56:13.862Z,42.7
2018-08-27T08:56:44.115Z,42.7
2018-08-27T08:57:14.253Z,43.4
2018-08-27T08:57:44.910Z,43.4
2018-08-27T08:59:11.708Z,42.6
2018-08-27T09:00:11.442Z,43.7
2018-08-27T09:01:10.860Z,43.3
2018-08-27T09:02:09.676Z,40.9
2018-08-27T09:03:09.405Z,41.1
2018-08-27T09:04:08.749Z,42
2018-08-27T09:05:08.190Z,41.8
2018-08-27T09:06:07.420Z,39.9
2018-08-27T09:07:06.645Z,39.2
2018-08-27T09:08:06.583Z,39.8
2018-08-27T09:09:05.610Z,40
2018-08-27T09:10:04.936Z,39
2018-08-27T09:11:04.168Z,40.9
2018-08-27T09:12:03.390Z,39.9
2018-08-27T09:13:03.116Z,40.4
2018-08-27T09:14:02.455Z,41
2018-08-27T09:15:01.689Z,40.6
2018-08-27T09:16:01.160Z,41
2018-08-27T09:17:00.358Z,40.6
2018-08-27T09:17:59.821Z,40.8
2018-08-27T09:18:59.261Z,40.9
2018-08-27T09:19:58.385Z,40.5
2018-08-27T09:20:57.659Z,39.7
2018-08-27T09:21:57.494Z,38.5
2018-08-27T09:22:56.726Z,38.4
2018-08-27T09:23:55.841Z,38.2
2018-08-27T09:24:55.283Z,38.5
2018-08-27T09:25:25.716Z,38.5
2018-08-27T09:25:55.970Z,38.8
2018-08-27T09:26:26.525Z,38.8
2018-08-27T09:26:57.060Z,38.5
2018-08-27T09:27:27.490Z,38.5
2018-08-27T09:27:58.026Z,38.2
2018-08-27T09:28:52.834Z,38.7
2018-08-27T09:29:52.463Z,38.1
2018-08-27T09:30:51.796Z,37.9
2018-08-27T09:31:51.016Z,38.1
2018-08-27T09:32:50.534Z,37.6
2018-08-27T09:33:49.982Z,37.2
2018-08-27T09:34:49.103Z,37.1
2018-08-27T09:35:48.721Z,37.2
2018-08-27T09:36:19.263Z,37.2
2018-08-27T09:36:49.901Z,37.7
2018-08-27T09:37:20.383Z,37.7
2018-08-27T09:37:51.043Z,37.8
2018-08-27T09:38:21.582Z,37.8
2018-08-27T09:38:52.341Z,37.4
2018-08-27T09:39:22.890Z,37.4
2018-08-27T09:40:45.374Z,37.9
2018-08-27T09:41:44.725Z,37.5
2018-08-27T09:42:44.066Z,38.2
2018-08-27T09:43:43.797Z,38.1
2018-08-27T09:44:43.238Z,37.6
2018-08-27T09:45:42.380Z,38.4
2018-08-27T09:46:41.868Z,38.6
2018-08-27T09:47:41.347Z,37.3
2018-08-27T09:48:11.996Z,37.3
2018-08-27T09:48:42.427Z,37.8
2018-08-27T09:49:12.970Z,37.8
2018-08-27T09:50:39.487Z,38.4
2018-08-27T09:51:38.606Z,38.1
2018-08-27T09:53:37.617Z,37.7
2018-08-27T09:54:36.844Z,37.4
2018-08-27T09:55:36.477Z,37.6
2018-08-27T09:56:35.427Z,38
2018-08-27T09:57:34.756Z,37.3
2018-08-27T09:58:34.683Z,38
2018-08-27T09:59:33.809Z,36.8
2018-08-27T10:00:33.260Z,36.3
2018-08-27T10:01:32.590Z,36.6
2018-08-27T10:02:32.107Z,37
2018-08-27T10:03:31.457Z,36.8
2018-08-27T10:04:30.789Z,37
2018-08-27T10:05:30.122Z,36.4
2018-08-27T10:06:29.457Z,36.6
2018-08-27T10:07:28.903Z,36.8
2018-08-27T10:08:28.015Z,35.7
2018-08-27T10:09:27.749Z,35.7
2018-08-27T10:10:27.026Z,36.4
2018-08-27T10:11:26.483Z,35.5
2018-08-27T10:12:25.823Z,34.3
2018-08-27T10:13:25.046Z,34
2018-08-27T10:14:24.500Z,34.2
2018-08-27T10:15:23.909Z,34.4
2018-08-27T10:16:23.151Z,34.3
2018-08-27T10:17:22.988Z,34
2018-08-27T10:18:22.344Z,33.6
2018-08-27T10:19:21.582Z,33.2
2018-08-27T10:20:21.201Z,33.3
2018-08-27T10:21:20.532Z,33.4
2018-08-27T10:22:20.153Z,33.2
2018-08-27T10:23:19.396Z,32.9
2018-08-27T10:24:18.410Z,32.9
2018-08-27T10:25:17.858Z,33
2018-08-27T10:26:17.221Z,32.9
2018-08-27T10:27:16.640Z,33.4
2018-08-27T10:28:16.002Z,33.3
2018-08-27T10:29:15.444Z,34.4
2018-08-27T10:30:15.063Z,33.3
2018-08-27T10:31:14.408Z,33.5
2018-08-27T10:32:13.769Z,32.9
2018-08-27T10:33:13.398Z,33.8
2018-08-27T10:34:12.293Z,33.1
2018-08-27T10:34:42.942Z,33.1
2018-08-27T10:35:13.164Z,33.1
2018-08-27T10:35:43.708Z,33.1
2018-08-27T10:36:13.961Z,32.9
2018-08-27T10:36:44.495Z,32.9
2018-08-27T10:38:10.015Z,32.5
2018-08-27T10:39:09.526Z,33.3
2018-08-27T10:40:08.755Z,33.6
2018-08-27T10:41:08.486Z,33.1
2018-08-27T10:42:07.809Z,32.8
2018-08-27T10:43:07.138Z,33
2018-08-27T10:44:06.485Z,32.4
2018-08-27T10:45:06.218Z,32.2
2018-08-27T10:46:05.452Z,32.6
2018-08-27T10:47:04.673Z,32
2018-08-27T10:48:04.405Z,33.4
2018-08-27T10:49:03.755Z,32.7
2018-08-27T10:50:03.003Z,32.5
2018-08-27T10:51:02.461Z,33.3
2018-08-27T10:52:01.911Z,32.4
2018-08-27T10:53:01.428Z,32.9
2018-08-27T10:54:00.762Z,34.3
2018-08-27T10:54:59.991Z,32.8
2018-08-27T10:55:59.716Z,32.7
2018-08-27T10:56:58.943Z,32.9
2018-08-27T10:57:58.460Z,32.7
2018-08-27T10:58:57.696Z,32.3
2018-08-27T10:59:57.150Z,31.7
2018-08-27T11:00:56.600Z,32.4
2018-08-27T11:01:56.039Z,31.6
2018-08-27T11:02:55.368Z,32.3
2018-08-27T11:03:55.209Z,32.6
2018-08-27T11:06:53.486Z,31.9
2018-08-27T11:07:52.820Z,32.6
2018-08-27T11:08:52.441Z,32
2018-08-27T11:09:51.877Z,31.9
2018-08-27T11:10:51.023Z,32.7
2018-08-27T11:11:50.465Z,32.1
2018-08-27T11:12:50.086Z,32.5
2018-08-27T11:13:49.424Z,32.9
2018-08-27T11:14:49.042Z,32.3
2018-08-27T11:15:48.195Z,32.2
2018-08-27T11:16:18.856Z,32.2
2018-08-27T11:16:49.399Z,32.6
2018-08-27T11:17:19.650Z,32.6
2018-08-27T11:17:50.298Z,33
2018-08-27T11:18:20.957Z,33
2018-08-27T11:18:51.489Z,32.8
2018-08-27T11:19:22.041Z,32.8
2018-08-27T11:19:52.461Z,33.1
2018-08-27T11:20:22.890Z,33.1
2018-08-27T11:21:45.044Z,33.1
2018-08-27T11:22:44.273Z,33.3
2018-08-27T11:23:43.608Z,33.7
2018-08-27T11:24:43.476Z,33.8
2018-08-27T11:25:42.804Z,33.3
2018-08-27T11:26:42.635Z,33.3
2018-08-27T11:27:41.781Z,33.4
2018-08-27T11:28:12.423Z,33.4
2018-08-27T11:28:42.866Z,33.7
2018-08-27T11:29:13.410Z,33.7
2018-08-27T11:29:43.998Z,35
2018-08-27T11:30:14.141Z,35
2018-08-27T11:31:39.669Z,33.5
2018-08-27T11:32:39.007Z,33.7
2018-08-27T11:34:37.725Z,34.8
2018-08-27T11:35:37.460Z,33.7
2018-08-27T11:36:36.687Z,33.7
2018-08-27T11:37:36.025Z,33.7
2018-08-27T11:38:35.351Z,34.4
2018-08-27T11:39:35.082Z,34.2
2018-08-27T11:41:33.828Z,34.4
2018-08-27T11:42:33.270Z,34.1
2018-08-27T11:43:32.939Z,34.8
2018-08-27T11:44:32.118Z,35
2018-08-27T11:45:31.855Z,34.5
2018-08-27T11:46:31.196Z,34.1
2018-08-27T11:48:30.034Z,34.8
2018-08-27T11:49:29.263Z,34.6
2018-08-27T11:50:29.161Z,35.2
2018-08-27T11:51:28.174Z,35
2018-08-27T11:52:27.672Z,34.2
2018-08-27T11:53:27.115Z,34.8
2018-08-27T11:54:26.338Z,34.3
2018-08-27T11:55:26.067Z,35.2
2018-08-27T11:56:25.300Z,34.5
2018-08-27T11:57:24.922Z,34.9
2018-08-27T11:58:24.259Z,34.6
2018-08-27T11:59:23.878Z,35.1
2018-08-27T12:00:23.361Z,35.4
2018-08-27T12:01:22.808Z,34.9
2018-08-27T12:02:22.032Z,35
2018-08-27T12:03:21.772Z,36
2018-08-27T12:04:20.899Z,35.4
2018-08-27T12:05:20.344Z,35.2
2018-08-27T12:06:20.183Z,35.7
2018-08-27T12:07:19.409Z,36.1
2018-08-27T12:08:18.744Z,36.4
2018-08-27T12:09:18.484Z,36
2018-08-27T12:10:17.820Z,36.2
2018-08-27T12:11:17.437Z,36.7
2018-08-27T12:11:48.086Z,36.7
2018-08-27T12:12:18.620Z,36.4
2018-08-27T12:13:16.333Z,36.9
2018-08-27T12:14:15.560Z,36.5
2018-08-27T12:15:14.897Z,36.6
2018-08-27T12:16:14.344Z,36.7
2018-08-27T12:16:45.020Z,36.7
2018-08-27T12:18:13.117Z,37.1
2018-08-27T12:20:12.228Z,36.6
2018-08-27T12:21:11.574Z,37.2
2018-08-27T12:22:10.912Z,37.2
2018-08-27T12:23:10.656Z,37
2018-08-27T12:24:09.875Z,37.3
2018-08-27T12:25:09.318Z,36.7
2018-08-27T12:26:08.938Z,37.1
2018-08-27T12:26:39.476Z,37.1
2018-08-27T12:27:09.911Z,37.1
2018-08-27T12:27:40.347Z,37.1
2018-08-27T12:28:10.674Z,36.5
2018-08-27T12:28:41.325Z,36.5
2018-08-27T12:30:06.829Z,36.6
2018-08-27T12:31:06.164Z,36.9
2018-08-27T12:32:05.285Z,36.6
2018-08-27T12:33:04.922Z,36.8
2018-08-27T12:34:04.256Z,36.7
2018-08-27T12:35:04.096Z,37.1
2018-08-27T12:37:02.919Z,37.2
2018-08-27T12:38:02.038Z,37.8
2018-08-27T12:39:01.457Z,37.7
2018-08-27T12:40:01.185Z,37.8
2018-08-27T12:41:01.169Z,37.3
2018-08-27T12:42:00.019Z,37
2018-08-27T12:42:59.245Z,37.4
2018-08-27T12:43:59.188Z,36.7
2018-08-27T12:44:58.307Z,36.7
2018-08-27T12:45:57.751Z,36.9
2018-08-27T12:46:57.485Z,37.1
2018-08-27T12:47:56.712Z,37.1
2018-08-27T12:48:56.052Z,37.3
2018-08-27T12:49:55.929Z,37.1
2018-08-27T12:50:55.413Z,37.5
2018-08-27T12:51:54.578Z,37.5
2018-08-27T12:52:53.808Z,37.5
2018-08-27T12:55:52.320Z,38
2018-08-27T12:56:52.055Z,38.4
2018-08-27T12:57:22.485Z,38.4
2018-08-27T12:57:52.911Z,38.4
2018-08-27T12:58:50.774Z,38.5
2018-08-27T12:59:20.884Z,38.5
2018-08-27T12:59:51.536Z,38.6
2018-08-27T13:00:22.073Z,38.6
2018-08-27T13:00:52.209Z,38.9
2018-08-27T13:01:22.864Z,38.9
2018-08-27T13:02:48.477Z,38.5
2018-08-27T13:03:48.208Z,38.6
2018-08-27T13:04:47.441Z,38.7
2018-08-27T13:05:47.031Z,38.3
2018-08-27T13:06:46.435Z,38.3
2018-08-27T13:07:45.894Z,39.2
2018-08-27T13:08:45.243Z,37.7
2018-08-27T13:09:15.791Z,37.7
2018-08-27T13:09:46.225Z,38.1
2018-08-27T13:10:16.868Z,38.1
2018-08-27T13:10:47.115Z,38.3
2018-08-27T13:11:17.787Z,38.3
2018-08-27T13:14:42.152Z,39
2018-08-27T13:17:40.155Z,41.2
2018-08-27T13:18:39.985Z,41.7
2018-08-27T13:19:39.426Z,42.3
2018-08-27T13:23:36.940Z,42.2
2018-08-27T13:24:36.673Z,42
2018-08-27T13:25:36.088Z,42.7
2018-08-27T13:27:35.028Z,43.1
2018-08-27T13:28:34.147Z,43.3